createdAt,value
2018-09-18T00:01:55.460Z,65.10
2018-09-18T00:04:23.593Z,65.10
2018-09-18T00:06:51.775Z,65.40
2018-09-18T00:09:19.897Z,65.60
2018-09-18T00:11:48.001Z,65.80
2018-09-18T00:14:16.126Z,65.80
2018-09-18T00:16:44.243Z,66.10
2018-09-18T00:19:12.386Z,67.10
2018-09-18T00:21:40.547Z,66.50
2018-09-18T00:24:08.688Z,66.90
2018-09-18T00:26:36.839Z,67.70
2018-09-18T00:29:04.980Z,67.20
2018-09-18T00:31:33.109Z,67.30
2018-09-18T00:34:01.239Z,67.40
2018-09-18T00:36:29.365Z,67.50
2018-09-18T00:38:57.497Z,67.60
2018-09-18T00:41:25.603Z,67.70
2018-09-18T00:43:53.740Z,67.60
2018-09-18T00:46:21.850Z,67.70
2018-09-18T00:48:49.971Z,68.60
2018-09-18T00:51:18.095Z,68.00
2018-09-18T00:53:46.218Z,68.10
2018-09-18T00:56:14.390Z,68.10
2018-09-18T00:58:42.498Z,68.20
2018-09-18T01:01:10.651Z,68.20
2018-09-18T01:03:38.766Z,68.30
2018-09-18T01:06:07.086Z,68.40
2018-09-18T01:08:35.206Z,68.40
2018-09-18T01:11:03.343Z,68.20
2018-09-18T01:13:31.446Z,68.40
2018-09-18T01:15:59.582Z,68.50
2018-09-18T01:18:33.149Z,68.40
2018-09-18T01:21:01.345Z,68.40
2018-09-18T01:23:29.470Z,68.60
2018-09-18T01:25:57.602Z,68.60
2018-09-18T01:28:25.739Z,68.60
2018-09-18T01:30:53.880Z,68.60
2018-09-18T01:33:22.024Z,68.50
2018-09-18T01:35:50.191Z,68.60
2018-09-18T01:38:18.352Z,68.60
2018-09-18T01:40:46.492Z,68.50
2018-09-18T01:43:14.620Z,68.80
2018-09-18T01:45:42.854Z,68.80
2018-09-18T01:48:10.991Z,68.90
2018-09-18T01:50:39.146Z,68.90
2018-09-18T01:53:07.371Z,68.80
2018-09-18T01:55:35.499Z,68.70
2018-09-18T01:58:03.628Z,68.50
2018-09-18T02:00:31.780Z,68.50
2018-09-18T02:02:59.919Z,68.40
2018-09-18T02:05:28.124Z,68.10
2018-09-18T02:07:56.275Z,67.90
2018-09-18T02:10:24.448Z,67.60
2018-09-18T02:12:52.574Z,67.60
2018-09-18T02:15:20.731Z,67.60
2018-09-18T02:17:48.852Z,67.70
2018-09-18T02:20:17.212Z,67.80
2018-09-18T02:22:45.343Z,67.80
2018-09-18T02:25:13.471Z,67.50
2018-09-18T02:27:41.596Z,67.70
2018-09-18T02:30:09.754Z,67.80
2018-09-18T02:32:37.904Z,68.60
2018-09-18T02:35:06.188Z,68.10
2018-09-18T02:37:34.321Z,68.50
2018-09-18T02:40:02.469Z,68.50
2018-09-18T02:42:30.591Z,68.60
2018-09-18T02:44:58.723Z,69.40
2018-09-18T02:47:26.851Z,68.90
2018-09-18T02:49:54.964Z,69.00
2018-09-18T02:52:23.117Z,69.00
2018-09-18T02:54:51.263Z,69.20
2018-09-18T02:57:19.497Z,69.20
2018-09-18T02:59:47.632Z,69.00
2018-09-18T03:02:15.774Z,69.10
2018-09-18T03:04:43.900Z,69.20
2018-09-18T03:07:12.044Z,69.20
2018-09-18T03:09:40.160Z,69.30
2018-09-18T03:12:08.400Z,69.20
2018-09-18T03:14:36.566Z,69.30
2018-09-18T03:17:04.696Z,69.10
2018-09-18T03:19:32.819Z,69.20
2018-09-18T03:22:01.008Z,69.20
2018-09-18T03:24:29.123Z,69.40
2018-09-18T03:26:57.251Z,69.50
2018-09-18T03:29:25.363Z,69.50
2018-09-18T03:31:53.512Z,69.50
2018-09-18T03:34:21.643Z,69.70
2018-09-18T03:36:49.773Z,69.90
2018-09-18T03:39:17.899Z,70.00
2018-09-18T03:41:46.142Z,70.00
2018-09-18T03:44:14.242Z,70.00
2018-09-18T03:46:42.374Z,70.10
2018-09-18T03:49:10.493Z,70.20
2018-09-18T03:51:38.620Z,70.20
2018-09-18T03:54:06.759Z,70.40
2018-09-18T03:56:34.887Z,70.70
2018-09-18T03:59:03.070Z,70.70
2018-09-18T04:01:31.211Z,70.80
2018-09-18T04:03:59.353Z,70.70
2018-09-18T04:06:27.499Z,70.70
2018-09-18T04:08:55.723Z,70.80
2018-09-18T04:11:23.848Z,70.80
2018-09-18T04:13:51.973Z,70.90
2018-09-18T04:16:20.114Z,70.90
2018-09-18T04:18:48.249Z,70.90
2018-09-18T04:21:16.386Z,71.20
2018-09-18T04:23:44.507Z,70.60
2018-09-18T04:26:12.649Z,70.50
2018-09-18T04:28:40.784Z,70.40
2018-09-18T04:31:09.377Z,70.50
2018-09-18T04:33:37.531Z,70.50
2018-09-18T04:36:05.691Z,70.60
2018-09-18T04:38:33.918Z,70.50
2018-09-18T04:41:02.030Z,70.50
2018-09-18T04:43:30.171Z,70.50
2018-09-18T04:45:58.339Z,70.40
2018-09-18T04:48:26.444Z,70.60
2018-09-18T04:50:54.561Z,70.80
2018-09-18T04:53:22.793Z,70.70
2018-09-18T04:55:50.930Z,70.80
2018-09-18T04:58:19.135Z,70.80
2018-09-18T05:00:47.269Z,70.80
2018-09-18T05:03:15.424Z,70.80
2018-09-18T05:05:43.604Z,70.70
2018-09-18T05:08:11.727Z,70.80
2018-09-18T05:10:39.879Z,70.60
2018-09-18T05:13:08.009Z,70.60
2018-09-18T05:15:36.135Z,70.40
2018-09-18T05:18:04.266Z,70.30
2018-09-18T05:20:32.393Z,70.30
2018-09-18T05:23:00.684Z,70.20
2018-09-18T05:25:28.834Z,70.00
2018-09-18T05:27:57.009Z,69.90
2018-09-18T05:30:25.208Z,69.50
2018-09-18T05:32:53.446Z,69.50
2018-09-18T05:35:21.552Z,69.60
2018-09-18T05:37:49.883Z,69.40
2018-09-18T05:40:18.282Z,69.20
2018-09-18T05:42:46.566Z,68.80
2018-09-18T05:45:14.929Z,68.40
2018-09-18T05:47:43.161Z,67.90
2018-09-18T05:50:11.377Z,67.50
2018-09-18T05:52:39.507Z,67.30
2018-09-18T05:55:07.743Z,67.00
2018-09-18T05:57:35.936Z,66.60
2018-09-18T06:00:04.311Z,66.40
2018-09-18T06:02:32.714Z,67.00
2018-09-18T06:05:00.910Z,65.70
2018-09-18T06:07:29.055Z,65.80
2018-09-18T06:09:57.219Z,65.50
2018-09-18T06:12:25.432Z,65.30
2018-09-18T06:14:53.559Z,65.80
2018-09-18T06:17:21.707Z,64.80
2018-09-18T06:19:49.867Z,65.00
2018-09-18T06:22:18.004Z,64.20
2018-09-18T06:24:46.154Z,64.00
2018-09-18T06:27:14.326Z,63.70
2018-09-18T06:29:42.691Z,63.30
2018-09-18T06:32:10.852Z,63.70
2018-09-18T06:34:39.052Z,62.70
2018-09-18T06:37:07.247Z,62.10
2018-09-18T06:39:35.389Z,61.70
2018-09-18T06:42:03.549Z,60.90
2018-09-18T06:44:31.708Z,60.40
2018-09-18T06:46:59.882Z,60.10
2018-09-18T06:49:28.032Z,59.50
2018-09-18T06:51:56.172Z,59.10
2018-09-18T06:54:24.345Z,58.70
2018-09-18T06:56:52.450Z,58.20
2018-09-18T06:59:20.614Z,57.60
2018-09-18T07:01:48.767Z,57.10
2018-09-18T07:04:16.899Z,56.30
2018-09-18T07:06:45.067Z,55.80
2018-09-18T07:09:13.243Z,55.50
2018-09-18T07:11:41.375Z,55.20
2018-09-18T07:14:09.524Z,55.00
2018-09-18T07:16:37.695Z,54.70
2018-09-18T07:19:06.140Z,54.60
2018-09-18T07:21:34.283Z,55.30
2018-09-18T07:24:02.428Z,54.30
2018-09-18T07:26:30.605Z,53.80
2018-09-18T07:28:58.794Z,53.60
2018-09-18T07:31:26.916Z,53.10
2018-09-18T07:33:55.120Z,52.80
2018-09-18T07:36:23.244Z,52.70
2018-09-18T07:38:51.398Z,52.00
2018-09-18T07:41:19.559Z,51.90
2018-09-18T07:43:47.726Z,51.60
2018-09-18T07:46:15.882Z,51.10
2018-09-18T07:48:44.047Z,50.60
2018-09-18T07:51:12.292Z,50.50
2018-09-18T07:53:40.499Z,50.20
2018-09-18T07:56:08.675Z,50.20
2018-09-18T07:58:36.887Z,49.90
2018-09-18T08:01:05.011Z,49.80
2018-09-18T08:03:33.151Z,50.00
2018-09-18T08:06:01.287Z,49.40
2018-09-18T08:08:29.455Z,49.30
2018-09-18T08:10:57.777Z,49.10
2018-09-18T08:13:25.813Z,49.00
2018-09-18T08:15:53.944Z,48.60
2018-09-18T08:18:23.119Z,48.90
2018-09-18T08:20:51.293Z,48.70
2018-09-18T08:23:19.444Z,48.40
2018-09-18T08:25:47.633Z,47.50
2018-09-18T08:28:15.740Z,47.50
2018-09-18T08:30:43.899Z,47.00
2018-09-18T08:33:12.048Z,47.00
2018-09-18T08:35:40.215Z,46.80
2018-09-18T08:38:08.356Z,46.20
2018-09-18T08:40:36.523Z,45.80
2018-09-18T08:43:04.647Z,46.00
2018-09-18T08:45:32.785Z,45.30
2018-09-18T08:48:00.950Z,44.90
2018-09-18T08:50:29.099Z,45.00
2018-09-18T08:52:57.309Z,44.50
2018-09-18T08:55:25.459Z,44.10
2018-09-18T08:57:53.583Z,44.10
2018-09-18T09:00:21.795Z,43.80
2018-09-18T09:02:49.961Z,43.40
2018-09-18T09:05:18.163Z,43.50
2018-09-18T09:07:46.336Z,43.30
2018-09-18T09:10:14.474Z,43.30
2018-09-18T09:12:42.693Z,43.10
2018-09-18T09:15:10.876Z,43.00
2018-09-18T09:17:38.995Z,42.50
2018-09-18T09:20:07.463Z,42.10
2018-09-18T09:22:35.671Z,42.70
2018-09-18T09:25:03.794Z,41.90
2018-09-18T09:27:31.934Z,42.00
2018-09-18T09:30:00.179Z,41.60
2018-09-18T09:32:28.311Z,41.90
2018-09-18T09:34:56.448Z,40.80
2018-09-18T09:37:24.621Z,40.50
2018-09-18T09:39:52.771Z,40.10
2018-09-18T09:42:20.931Z,40.20
2018-09-18T09:44:49.147Z,40.20
2018-09-18T09:47:17.301Z,39.50
2018-09-18T09:49:45.507Z,39.90
2018-09-18T09:52:13.644Z,40.00
2018-09-18T09:54:41.818Z,39.00
2018-09-18T09:57:09.936Z,39.10
2018-09-18T09:59:38.361Z,38.60
2018-09-18T10:02:11.726Z,38.50
2018-09-18T10:04:39.895Z,38.30
2018-09-18T10:07:08.060Z,38.60
2018-09-18T10:09:36.224Z,38.30
2018-09-18T10:12:04.502Z,37.80
2018-09-18T10:14:32.643Z,37.90
2018-09-18T10:17:00.883Z,38.80
2018-09-18T10:19:29.399Z,39.10
2018-09-18T10:21:57.591Z,38.80
2018-09-18T10:24:25.773Z,38.80
2018-09-18T10:26:54.040Z,38.10
2018-09-18T10:29:22.254Z,37.40
2018-09-18T10:31:50.426Z,37.50
2018-09-18T10:34:18.555Z,37.50
2018-09-18T10:36:46.762Z,37.50
2018-09-18T10:39:14.961Z,37.30
2018-09-18T10:41:43.486Z,37.70
2018-09-18T10:44:11.623Z,37.90
2018-09-18T10:46:39.918Z,36.90
2018-09-18T10:49:08.109Z,36.20
2018-09-18T10:51:36.284Z,36.30
2018-09-18T10:54:04.539Z,36.00
2018-09-18T10:56:32.699Z,36.10
2018-09-18T10:59:00.911Z,35.80
2018-09-18T11:01:29.113Z,35.30
2018-09-18T11:03:57.427Z,34.90
2018-09-18T11:06:25.616Z,34.80
2018-09-18T11:08:53.795Z,34.80
2018-09-18T11:11:22.087Z,34.70
2018-09-18T11:13:50.253Z,34.60
2018-09-18T11:16:18.316Z,34.20
2018-09-18T11:18:46.508Z,34.50
2018-09-18T11:21:14.652Z,34.70
2018-09-18T11:23:42.854Z,34.70
2018-09-18T11:26:11.119Z,34.80
2018-09-18T11:28:39.363Z,34.80
2018-09-18T11:31:07.573Z,34.90
2018-09-18T11:33:35.751Z,34.20
2018-09-18T11:36:03.930Z,33.80
2018-09-18T11:38:32.061Z,33.80
2018-09-18T11:41:00.232Z,33.60
2018-09-18T11:43:28.391Z,33.30
2018-09-18T11:45:56.792Z,33.10
2018-09-18T11:48:24.753Z,32.60
2018-09-18T11:50:53.008Z,32.20
2018-09-18T11:53:21.272Z,30.40
2018-09-18T11:55:49.572Z,30.00
2018-09-18T11:58:17.744Z,29.70
2018-09-18T12:00:45.899Z,29.70
2018-09-18T12:03:14.189Z,29.80
2018-09-18T12:05:42.343Z,29.60
2018-09-18T12:08:10.494Z,29.10
2018-09-18T12:10:38.652Z,28.10
2018-09-18T12:13:06.845Z,27.80
2018-09-18T12:15:35.017Z,29.00
2018-09-18T12:18:03.283Z,28.80
2018-09-18T12:20:31.428Z,29.20
2018-09-18T12:22:59.653Z,29.20
2018-09-18T12:25:27.784Z,27.70
2018-09-18T12:27:56.093Z,27.40
2018-09-18T12:30:24.174Z,27.50
2018-09-18T12:32:52.339Z,27.60
2018-09-18T12:35:20.612Z,27.50
2018-09-18T12:37:48.702Z,27.20
2018-09-18T12:40:16.842Z,26.60
2018-09-18T12:42:45.151Z,26.10
2018-09-18T12:45:13.188Z,25.20
2018-09-18T12:47:41.364Z,25.10
2018-09-18T12:50:09.609Z,24.30
2018-09-18T12:52:37.726Z,24.10
2018-09-18T12:55:05.943Z,23.90
2018-09-18T12:57:34.282Z,24.00
2018-09-18T13:00:02.371Z,24.00
2018-09-18T13:02:30.533Z,24.10
2018-09-18T13:04:58.704Z,23.90
2018-09-18T13:07:26.977Z,24.00
2018-09-18T13:09:55.182Z,24.10
2018-09-18T13:12:23.399Z,24.70
2018-09-18T13:14:51.684Z,24.60
2018-09-18T13:17:19.892Z,24.70
2018-09-18T13:19:48.138Z,24.80
2018-09-18T13:22:16.277Z,24.70
2018-09-18T13:24:44.492Z,24.70
2018-09-18T13:27:12.743Z,24.80
2018-09-18T13:29:40.967Z,24.80
2018-09-18T13:32:09.131Z,24.30
2018-09-18T13:34:37.279Z,23.90
2018-09-18T13:37:05.495Z,24.10
2018-09-18T13:39:33.659Z,24.40
2018-09-18T13:42:01.927Z,24.20
2018-09-18T13:44:30.107Z,24.20
2018-09-18T13:46:58.268Z,24.30
2018-09-18T13:49:26.401Z,24.70
2018-09-18T13:51:54.615Z,25.00
2018-09-18T13:54:22.793Z,25.70
2018-09-18T13:56:51.253Z,25.90
2018-09-18T13:59:19.254Z,26.10
2018-09-18T14:01:47.641Z,26.10
2018-09-18T14:04:15.666Z,26.00
2018-09-18T14:06:43.845Z,26.00
2018-09-18T14:09:12.062Z,25.90
2018-09-18T14:11:40.107Z,26.10
2018-09-18T14:14:08.431Z,26.30
2018-09-18T14:16:36.559Z,27.10
2018-09-18T14:19:04.699Z,27.70
2018-09-18T14:21:32.931Z,28.00
2018-09-18T14:24:01.071Z,28.20
2018-09-18T14:26:29.317Z,28.30
2018-09-18T14:28:57.373Z,28.50
2018-09-18T14:31:25.593Z,27.10
2018-09-18T14:33:53.736Z,26.60
2018-09-18T14:36:21.852Z,26.40
2018-09-18T14:38:50.015Z,26.40
2018-09-18T14:41:18.159Z,26.90
2018-09-18T14:43:46.295Z,27.20
2018-09-18T14:46:15.443Z,27.60
2018-09-18T14:48:43.643Z,27.80
2018-09-18T14:51:11.930Z,28.40
2018-09-18T14:53:40.119Z,28.70
2018-09-18T14:56:08.267Z,28.90
2018-09-18T14:58:36.428Z,29.00
2018-09-18T15:01:04.584Z,27.60
2018-09-18T15:03:32.744Z,26.90
2018-09-18T15:06:00.901Z,26.50
2018-09-18T15:08:29.083Z,26.30
2018-09-18T15:10:57.353Z,26.40
2018-09-18T15:13:25.542Z,26.40
2018-09-18T15:15:53.691Z,26.60
2018-09-18T15:18:21.859Z,27.10
2018-09-18T15:20:50.069Z,27.30
2018-09-18T15:23:18.317Z,28.00
2018-09-18T15:25:46.506Z,27.80
2018-09-18T15:28:14.664Z,28.20
2018-09-18T15:30:43.884Z,28.00
2018-09-18T15:33:12.011Z,28.20
2018-09-18T15:35:40.205Z,28.00
2018-09-18T15:38:08.411Z,28.20
2018-09-18T15:40:36.574Z,28.10
2018-09-18T15:43:04.787Z,28.00
2018-09-18T15:45:33.727Z,27.80
2018-09-18T15:48:01.892Z,27.70
2018-09-18T15:50:30.024Z,27.10
2018-09-18T15:52:58.299Z,26.70
2018-09-18T15:55:26.545Z,26.50
2018-09-18T15:57:54.745Z,26.40
2018-09-18T16:00:22.822Z,26.40
2018-09-18T16:02:50.995Z,26.30
2018-09-18T16:05:19.188Z,26.10
2018-09-18T16:07:48.213Z,25.50
2018-09-18T16:10:16.355Z,25.40
2018-09-18T16:12:44.528Z,25.70
2018-09-18T16:15:12.776Z,26.00
2018-09-18T16:17:40.869Z,26.20
2018-09-18T16:20:09.039Z,26.20
2018-09-18T16:22:37.242Z,26.40
2018-09-18T16:25:05.323Z,26.50
2018-09-18T16:27:33.456Z,26.90
2018-09-18T16:30:01.747Z,27.20
2018-09-18T16:32:29.878Z,26.80
2018-09-18T16:34:58.020Z,27.20
2018-09-18T16:37:26.184Z,27.40
2018-09-18T16:39:54.353Z,27.50
2018-09-18T16:42:22.508Z,27.40
2018-09-18T16:44:50.627Z,27.60
2018-09-18T16:47:18.838Z,27.60
2018-09-18T16:49:46.987Z,27.70
2018-09-18T16:52:15.136Z,27.80
2018-09-18T16:54:43.396Z,27.70
2018-09-18T16:57:11.478Z,27.90
2018-09-18T16:59:39.631Z,28.10
2018-09-18T17:02:07.993Z,28.20
2018-09-18T17:04:36.155Z,28.40
2018-09-18T17:07:04.348Z,28.60
2018-09-18T17:09:32.482Z,28.60
2018-09-18T17:12:00.616Z,28.70
2018-09-18T17:14:28.755Z,29.10
2018-09-18T17:16:56.910Z,29.00
2018-09-18T17:19:25.326Z,29.30
2018-09-18T17:21:53.573Z,29.10
2018-09-18T17:24:21.695Z,29.30
2018-09-18T17:26:49.855Z,29.40
2018-09-18T17:29:18.111Z,29.40
2018-09-18T17:31:46.175Z,29.70
2018-09-18T17:34:14.387Z,29.90
2018-09-18T17:36:42.450Z,30.00
2018-09-18T17:39:11.474Z,30.30
2018-09-18T17:41:39.681Z,30.40
2018-09-18T17:44:08.231Z,30.90
2018-09-18T17:46:36.379Z,31.20
2018-09-18T17:49:04.641Z,31.50
2018-09-18T17:51:32.782Z,31.70
2018-09-18T17:54:00.910Z,32.00
2018-09-18T17:56:29.049Z,32.30
2018-09-18T17:58:57.197Z,32.40
2018-09-18T18:01:25.342Z,32.70
2018-09-18T18:03:53.516Z,33.00
2018-09-18T18:06:21.712Z,33.10
2018-09-18T18:08:49.841Z,33.30
2018-09-18T18:11:17.980Z,33.80
2018-09-18T18:13:46.138Z,34.00
2018-09-18T18:16:14.304Z,34.20
2018-09-18T18:18:42.455Z,34.60
2018-09-18T18:21:10.584Z,34.70
2018-09-18T18:23:38.785Z,35.10
2018-09-18T18:26:06.911Z,35.40
2018-09-18T18:28:35.055Z,35.70
2018-09-18T18:31:03.231Z,35.90
2018-09-18T18:33:31.405Z,35.80
2018-09-18T18:35:59.528Z,36.50
2018-09-18T18:38:27.737Z,36.70
2018-09-18T18:40:55.951Z,37.00
2018-09-18T18:43:24.047Z,37.20
2018-09-18T18:45:52.201Z,37.40
2018-09-18T18:48:20.470Z,37.50
2018-09-18T18:50:48.532Z,37.70
2018-09-18T18:53:16.703Z,38.00
2018-09-18T18:55:44.854Z,37.50
2018-09-18T18:58:13.034Z,38.40
2018-09-18T19:00:41.244Z,38.50
2018-09-18T19:03:09.311Z,38.90
2018-09-18T19:05:37.474Z,39.20
2018-09-18T19:08:05.740Z,39.40
2018-09-18T19:10:33.870Z,39.70
2018-09-18T19:13:02.045Z,40.20
2018-09-18T19:15:30.298Z,40.30
2018-09-18T19:17:58.433Z,40.40
2018-09-18T19:20:26.596Z,40.40
2018-09-18T19:22:54.727Z,41.10
2018-09-18T19:25:29.377Z,40.70
2018-09-18T19:27:57.459Z,40.80
2018-09-18T19:30:25.607Z,41.00
2018-09-18T19:32:53.811Z,41.20
2018-09-18T19:35:21.900Z,41.40
2018-09-18T19:37:50.037Z,41.70
2018-09-18T19:40:18.240Z,42.10
2018-09-18T19:42:46.379Z,42.30
2018-09-18T19:45:14.535Z,43.40
2018-09-18T19:47:43.530Z,43.00
2018-09-18T19:50:14.962Z,43.40
2018-09-18T19:52:44.181Z,43.60
2018-09-18T19:55:12.694Z,43.80
2018-09-18T19:57:40.895Z,43.90
2018-09-18T20:00:09.789Z,44.00
2018-09-18T20:02:38.042Z,44.30
2018-09-18T20:05:07.104Z,44.50
2018-09-18T20:07:35.567Z,44.90
2018-09-18T20:10:03.859Z,45.00
2018-09-18T20:12:31.993Z,45.20
2018-09-18T20:15:00.199Z,45.60
2018-09-18T20:17:29.238Z,45.80
2018-09-18T20:19:58.510Z,46.10
2018-09-18T20:22:27.791Z,46.40
2018-09-18T20:24:57.062Z,46.80
2018-09-18T20:27:26.279Z,47.30
2018-09-18T20:29:54.508Z,47.60
2018-09-18T20:32:22.675Z,47.90
2018-09-18T20:34:50.836Z,48.20
2018-09-18T20:37:18.990Z,48.30
2018-09-18T20:39:47.119Z,48.50
2018-09-18T20:42:15.388Z,48.80
2018-09-18T20:44:43.545Z,49.10
2018-09-18T20:47:11.709Z,49.20
2018-09-18T20:49:39.840Z,49.50
2018-09-18T20:52:07.987Z,49.80
2018-09-18T20:54:36.137Z,50.10
2018-09-18T20:57:04.300Z,50.60
2018-09-18T20:59:32.465Z,50.70
2018-09-18T21:02:00.668Z,50.90
2018-09-18T21:04:28.788Z,51.30
2018-09-18T21:06:56.991Z,51.80
2018-09-18T21:09:25.113Z,52.00
2018-09-18T21:11:53.353Z,52.20
2018-09-18T21:14:21.499Z,53.00
2018-09-18T21:16:49.631Z,53.20
2018-09-18T21:19:17.759Z,53.50
2018-09-18T21:21:45.951Z,53.90
2018-09-18T21:24:14.077Z,54.40
2018-09-18T21:26:42.220Z,55.20
2018-09-18T21:29:10.426Z,55.60
2018-09-18T21:31:38.520Z,55.90
2018-09-18T21:34:06.669Z,56.20
2018-09-18T21:36:34.794Z,56.60
2018-09-18T21:39:02.955Z,56.90
2018-09-18T21:41:31.102Z,57.10
2018-09-18T21:43:59.253Z,57.00
2018-09-18T21:46:27.433Z,56.60
2018-09-18T21:48:55.570Z,56.70
2018-09-18T21:51:23.701Z,56.90
2018-09-18T21:53:51.879Z,57.10
2018-09-18T21:56:20.012Z,57.30
2018-09-18T21:58:48.159Z,57.50
2018-09-18T22:01:16.346Z,57.70
2018-09-18T22:03:44.468Z,57.90
2018-09-18T22:06:12.622Z,58.00
2018-09-18T22:08:40.763Z,58.20
2018-09-18T22:11:08.932Z,58.40
2018-09-18T22:13:37.143Z,58.70
2018-09-18T22:16:05.302Z,59.00
2018-09-18T22:18:33.540Z,59.10
2018-09-18T22:21:01.692Z,59.20
2018-09-18T22:23:29.881Z,59.70
2018-09-18T22:25:58.025Z,59.90
2018-09-18T22:28:26.166Z,61.20
2018-09-18T22:30:54.312Z,60.50
2018-09-18T22:33:22.448Z,60.50
2018-09-18T22:35:50.589Z,60.70
2018-09-18T22:38:18.781Z,61.10
2018-09-18T22:40:46.863Z,61.60
2018-09-18T22:43:15.091Z,62.20
2018-09-18T22:45:43.171Z,62.50
2018-09-18T22:48:11.369Z,63.60
2018-09-18T22:50:39.484Z,63.90
2018-09-18T22:53:07.657Z,64.00
2018-09-18T22:55:35.889Z,64.40
2018-09-18T22:58:04.046Z,64.90
2018-09-18T23:00:32.187Z,65.00
2018-09-18T23:03:00.351Z,64.60
2018-09-18T23:05:28.497Z,64.60
2018-09-18T23:07:56.655Z,63.40
2018-09-18T23:10:24.778Z,63.40
2018-09-18T23:12:52.921Z,62.80
2018-09-18T23:15:21.064Z,62.60
2018-09-18T23:17:49.211Z,62.80
2018-09-18T23:20:17.357Z,62.80
2018-09-18T23:22:45.495Z,62.40
2018-09-18T23:25:13.631Z,63.30
2018-09-18T23:27:41.795Z,63.60
2018-09-18T23:30:09.928Z,63.80
2018-09-18T23:32:38.112Z,64.00
2018-09-18T23:35:07.152Z,64.10
2018-09-18T23:37:35.319Z,64.30
2018-09-18T23:40:03.480Z,64.20
2018-09-18T23:42:31.621Z,64.30
2018-09-18T23:44:59.835Z,64.60
2018-09-18T23:47:28.081Z,64.70
2018-09-18T23:49:56.249Z,64.60
2018-09-18T23:52:24.496Z,64.60
2018-09-18T23:54:52.631Z,64.80
2018-09-18T23:57:20.822Z,64.70
2018-09-18T23:59:48.962Z,64.70
